Huvudsida
METAR-TAF:

METAR-TAF

Flygplatser :

Ilam flygplats

Ilam, Iran

latitud: 33-35-09N, longitud: 046-24-20E, höjd: 1334 m

Aktuellt väderrapport

Denna rapport gjordes för 29 minuter sedan, klockan 12:30 UTC
Vind 4 kt från väst
Temperatur 22°C
Fuktighet 20%
Tryck 1023 hPa
Sikt 10 km eller mer
Inga moln under 1 500 m eller inga cumulonimbus

METAR: OICI 121230Z 26004KT CAVOK 22/M02 Q1022 A3020

Tid: 16:29 (12:59 UTC)

Väderprognos

Denna rapport gjordes för 1 timme och 39 minuter sedan, klockan 11:20 UTC
Prognos gäller från 12 kl. 12 UTC till 13 kl. 18 UTC
Vind 8 kt från ost/sydost
Sikt: 8000 m

TAF: OICI 121120Z 1212/1318 11008KT 8000 NSC

Aktuella väderrapporter och prognoser från 4000 flygplatser (METAR- och TAF-rapporter).

De tillgängliga stationerna syns som gula och röda prickar på kartan.

För musen över prickarna för att se namnen på stationerna.

Klicka sedan för att få väderrapporter och prognoser.

För att ändra kartan: Klicka på de gröna knapparna med ett svart kors på för att zooma in; den gröna knappen med ett streck på för att zooma ut; eller på de gröna pilarna för angränsande kartor.


METAR-TAF: